createdAt,value
2022-12-08T00:01:39.605Z,99664.56
2022-12-08T00:04:07.188Z,99663.63
2022-12-08T00:06:53.320Z,99655.78
2022-12-08T00:09:23.431Z,99661.06
2022-12-08T00:11:55.633Z,99607.22
2022-12-08T00:14:27.551Z,99658.34
2022-12-08T00:16:55.331Z,99652.28
2022-12-08T00:19:23.187Z,99658.41
2022-12-08T00:21:50.865Z,99634.41
2022-12-08T00:24:18.472Z,99637.34
2022-12-08T00:26:47.293Z,99582.97
2022-12-08T00:29:17.556Z,99598.28
2022-12-08T00:31:45.339Z,99632.94
2022-12-08T00:34:13.156Z,99631.25
2022-12-08T00:36:40.719Z,99627.91
2022-12-08T00:39:08.171Z,99627.75
2022-12-08T00:41:53.265Z,99635.66
2022-12-08T00:44:22.072Z,99640.09
2022-12-08T00:46:49.592Z,99630.47
2022-12-08T00:49:17.579Z,99632.16
2022-12-08T00:51:45.039Z,99596.47
2022-12-08T00:54:12.512Z,99630.47
2022-12-08T00:56:39.987Z,99633.09
2022-12-08T00:59:07.599Z,99574.25
2022-12-08T01:01:36.695Z,99622.53
2022-12-08T01:04:04.950Z,99626.13
2022-12-08T01:06:32.444Z,99628.78
2022-12-08T01:08:59.918Z,99563.44
2022-12-08T01:11:27.378Z,99625.19
2022-12-08T01:13:55.129Z,99619.13
2022-12-08T01:16:22.777Z,99569.06
2022-12-08T01:18:51.744Z,99627.91
2022-12-08T01:21:19.510Z,99629.69
2022-12-08T01:23:47.068Z,99632.34
2022-12-08T01:26:15.647Z,99628.00
2022-12-08T01:28:43.279Z,99625.78
2022-12-08T01:31:12.698Z,99632.44
2022-12-08T01:33:40.229Z,99635.16
2022-12-08T01:36:09.978Z,99628.09
2022-12-08T01:38:37.432Z,99630.72
2022-12-08T01:41:04.908Z,99620.41
2022-12-08T01:43:51.215Z,99624.59
2022-12-08T01:46:18.751Z,99633.47
2022-12-08T01:48:46.228Z,99621.19
2022-12-08T01:51:15.658Z,99621.19
2022-12-08T01:53:43.192Z,99619.47
2022-12-08T01:56:11.852Z,99623.84
2022-12-08T01:58:41.013Z,99618.56
2022-12-08T02:01:08.589Z,99611.53
2022-12-08T02:03:39.353Z,99618.56
2022-12-08T02:06:07.366Z,99616.81
2022-12-08T02:08:36.174Z,99613.34
2022-12-08T02:11:03.652Z,99614.19
2022-12-08T02:13:32.598Z,99611.63
2022-12-08T02:16:02.247Z,99605.44
2022-12-08T02:18:44.010Z,99600.13
2022-12-08T02:21:12.564Z,99592.22
2022-12-08T02:23:48.357Z,99593.13
2022-12-08T02:26:52.783Z,99587.75
2022-12-08T02:29:36.887Z,99593.03
2022-12-08T02:32:16.265Z,99586.06
2022-12-08T02:34:45.365Z,99601.16
2022-12-08T02:37:15.183Z,99580.00
2022-12-08T02:39:43.805Z,99589.84
2022-12-08T02:42:13.122Z,99459.81
2022-12-08T02:44:42.287Z,99562.47
2022-12-08T02:47:10.926Z,99565.97
2022-12-08T02:49:38.437Z,99564.25
2022-12-08T02:52:08.844Z,99409.19
2022-12-08T02:54:36.319Z,99566.78
2022-12-08T02:57:23.607Z,99563.22
2022-12-08T02:59:58.520Z,99119.19
2022-12-08T03:02:33.767Z,99375.69
2022-12-08T03:05:04.754Z,99541.31
2022-12-08T03:07:35.184Z,99544.91
2022-12-08T03:10:06.579Z,99518.25
2022-12-08T03:12:35.837Z,99528.28
2022-12-08T03:15:05.071Z,99527.44
2022-12-08T03:17:32.581Z,99530.06
2022-12-08T03:20:01.005Z,99534.34
2022-12-08T03:22:28.771Z,99525.56
2022-12-08T03:24:57.606Z,99453.41
2022-12-08T03:27:26.023Z,99465.00
2022-12-08T03:29:54.912Z,99516.69
2022-12-08T03:32:25.009Z,99305.06
2022-12-08T03:34:53.704Z,99512.44
2022-12-08T03:37:21.484Z,99314.09
2022-12-08T03:39:49.044Z,99364.34
2022-12-08T03:42:17.824Z,99504.50
2022-12-08T03:44:45.307Z,99501.00
2022-12-08T03:47:12.765Z,99496.56
2022-12-08T03:49:40.741Z,99498.34
2022-12-08T03:52:08.209Z,99503.66
2022-12-08T03:54:35.673Z,99498.28
2022-12-08T03:57:03.152Z,99495.72
2022-12-08T03:59:31.975Z,99495.72
2022-12-08T04:01:59.647Z,99490.53
2022-12-08T04:04:27.189Z,99487.88
2022-12-08T04:06:54.688Z,99476.38
2022-12-08T04:09:22.141Z,99474.66
2022-12-08T04:11:49.615Z,99479.94
2022-12-08T04:14:17.099Z,99469.38
2022-12-08T04:16:45.924Z,99469.38
2022-12-08T04:19:13.411Z,99471.19
2022-12-08T04:21:40.884Z,99470.34
2022-12-08T04:24:08.655Z,99460.63
2022-12-08T04:26:36.129Z,99459.75
2022-12-08T04:29:03.824Z,99460.63
2022-12-08T04:31:31.412Z,99447.69
2022-12-08T04:34:00.240Z,99450.44
2022-12-08T04:36:27.831Z,99454.47
2022-12-08T04:38:55.292Z,99454.47
2022-12-08T04:41:22.782Z,99454.66
2022-12-08T04:43:50.341Z,99451.94
2022-12-08T04:46:17.879Z,99447.50
2022-12-08T04:48:45.378Z,99449.28
2022-12-08T04:51:16.604Z,99447.50
2022-12-08T04:53:46.766Z,99438.63
2022-12-08T04:56:14.832Z,99434.28
2022-12-08T04:58:42.350Z,99438.63
2022-12-08T05:01:09.845Z,99433.34
2022-12-08T05:03:37.523Z,99239.53
2022-12-08T05:06:05.120Z,99423.81
2022-12-08T05:08:34.412Z,99424.56
2022-12-08T05:11:05.177Z,99426.47
2022-12-08T05:13:32.715Z,99426.56
2022-12-08T05:16:05.029Z,99379.50
2022-12-08T05:18:32.566Z,99424.56
2022-12-08T05:21:00.203Z,99428.84
2022-12-08T05:23:27.733Z,99421.00
2022-12-08T05:25:56.506Z,99419.94
2022-12-08T05:31:11.744Z,99417.13
2022-12-08T05:33:39.244Z,99417.97
2022-12-08T05:36:07.240Z,99417.03
2022-12-08T05:38:34.797Z,99411.75
2022-12-08T05:41:03.605Z,99414.28
2022-12-08T05:43:31.042Z,99412.44
2022-12-08T05:45:58.568Z,99413.25
2022-12-08T05:48:26.157Z,99408.16
2022-12-08T05:50:53.681Z,99401.75
2022-12-08T05:53:21.372Z,99409.00
2022-12-08T05:55:48.934Z,99402.50
2022-12-08T05:58:18.648Z,99383.34
2022-12-08T06:00:46.784Z,99390.91
2022-12-08T06:03:14.443Z,99393.47
2022-12-08T06:05:42.093Z,99386.25
2022-12-08T06:08:11.733Z,99388.72
2022-12-08T06:10:39.442Z,99397.31
2022-12-08T06:13:06.906Z,99385.78
2022-12-08T06:15:36.518Z,99202.34
2022-12-08T06:18:04.035Z,99383.06
2022-12-08T06:20:31.512Z,99387.38
2022-12-08T06:22:58.985Z,99390.03
2022-12-08T06:25:26.601Z,99392.59
2022-12-08T06:27:54.095Z,99373.44
2022-12-08T06:30:21.660Z,99382.00
2022-12-08T06:32:50.441Z,99391.56
2022-12-08T06:35:17.990Z,99397.69
2022-12-08T06:37:45.475Z,99387.97
2022-12-08T06:40:13.772Z,99390.53
2022-12-08T06:42:47.575Z,99388.75
2022-12-08T06:45:15.945Z,99387.81
2022-12-08T06:47:43.421Z,99388.66
2022-12-08T06:50:12.962Z,99388.56
2022-12-08T06:52:49.255Z,99388.47
2022-12-08T06:55:50.813Z,99383.81
2022-12-08T06:58:11.128Z,99389.03
2022-12-08T07:00:38.638Z,99381.94
2022-12-08T07:03:06.083Z,99380.16
2022-12-08T07:05:34.840Z,99387.91
2022-12-08T07:08:02.374Z,99394.13
2022-12-08T07:10:29.952Z,99402.81
2022-12-08T07:12:57.415Z,99343.03
2022-12-08T07:15:24.879Z,99397.97
2022-12-08T07:17:56.393Z,99327.75
2022-12-08T07:20:27.153Z,99384.31
2022-12-08T07:22:55.895Z,99395.22
2022-12-08T07:25:23.360Z,99401.06
2022-12-08T07:27:51.659Z,99398.25
2022-12-08T07:30:19.372Z,99392.94
2022-12-08T07:32:46.855Z,99394.03
2022-12-08T07:35:14.317Z,99397.97
2022-12-08T07:37:41.787Z,99339.72
2022-12-08T07:40:11.889Z,99398.97
2022-12-08T07:42:39.337Z,99390.47
2022-12-08T07:45:08.091Z,99397.91
2022-12-08T07:47:35.549Z,99402.38
2022-12-08T07:50:04.374Z,99396.00
2022-12-08T07:52:32.111Z,99402.06
2022-12-08T07:54:59.559Z,99398.56
2022-12-08T07:57:28.323Z,99394.78
2022-12-08T07:59:55.752Z,99401.97
2022-12-08T08:02:25.160Z,99394.78
2022-12-08T08:04:53.281Z,99396.59
2022-12-08T08:07:20.849Z,99394.78
2022-12-08T08:09:48.276Z,99403.47
2022-12-08T08:12:31.373Z,99388.66
2022-12-08T08:15:00.437Z,99396.28
2022-12-08T08:17:28.018Z,99397.97
2022-12-08T08:19:55.560Z,99396.19
2022-12-08T08:22:23.023Z,99397.00
2022-12-08T08:24:50.554Z,99401.28
2022-12-08T08:27:18.020Z,99401.59
2022-12-08T08:29:45.496Z,99372.69
2022-12-08T08:32:14.285Z,99398.38
2022-12-08T08:34:41.762Z,99406.34
2022-12-08T08:37:09.265Z,99398.66
2022-12-08T08:39:36.790Z,99401.97
2022-12-08T08:42:04.348Z,99410.00
2022-12-08T08:44:31.783Z,99407.25
2022-12-08T08:46:59.237Z,99405.38
2022-12-08T08:49:28.275Z,99412.56
2022-12-08T08:51:55.726Z,99413.31
2022-12-08T08:54:23.273Z,99418.25
2022-12-08T08:56:50.764Z,99367.81
2022-12-08T08:59:18.200Z,99418.22
2022-12-08T09:01:45.760Z,99409.50
2022-12-08T09:04:13.276Z,99424.19
2022-12-08T09:06:43.085Z,99410.97
2022-12-08T09:09:10.564Z,99357.00
2022-12-08T09:11:38.042Z,99416.47
2022-12-08T09:14:05.472Z,99415.88
2022-12-08T09:16:37.493Z,99392.47
2022-12-08T09:19:07.904Z,99368.56
2022-12-08T09:21:35.364Z,99418.41
2022-12-08T09:24:04.256Z,99428.41
2022-12-08T09:26:31.732Z,99424.25
2022-12-08T09:28:59.187Z,99427.81
2022-12-08T09:31:26.689Z,99420.06
2022-12-08T09:33:54.175Z,99425.59
2022-12-08T09:36:21.824Z,99429.00
2022-12-08T09:38:50.934Z,99423.59
2022-12-08T09:41:23.052Z,99359.81
2022-12-08T09:43:58.035Z,99422.66
2022-12-08T09:46:26.280Z,99419.91
2022-12-08T09:48:55.890Z,99424.16
2022-12-08T09:51:24.413Z,99418.88
2022-12-08T09:53:52.918Z,99424.16
2022-12-08T09:56:23.354Z,99411.66
2022-12-08T09:58:52.525Z,99415.06
2022-12-08T10:01:20.541Z,99384.78
2022-12-08T10:03:48.089Z,99370.06
2022-12-08T10:06:20.220Z,99418.06
2022-12-08T10:08:50.252Z,99417.84
2022-12-08T10:11:24.515Z,99408.97
2022-12-08T10:13:54.158Z,99416.06
2022-12-08T10:16:29.483Z,99364.28
2022-12-08T10:19:00.345Z,99421.25
2022-12-08T10:21:28.289Z,99375.28
2022-12-08T10:23:59.045Z,99408.97
2022-12-08T10:26:28.039Z,99408.97
2022-12-08T10:29:01.115Z,99411.69
2022-12-08T10:31:28.739Z,99395.16
2022-12-08T10:33:59.090Z,99354.09
2022-12-08T10:36:45.264Z,99405.13
2022-12-08T10:39:30.018Z,99402.78
2022-12-08T10:42:03.589Z,99413.22
2022-12-08T10:44:31.030Z,99403.22
2022-12-08T10:46:58.521Z,99406.06
2022-12-08T10:49:27.719Z,99383.69
2022-12-08T10:51:55.284Z,99398.78
2022-12-08T10:54:28.604Z,99400.38
2022-12-08T10:56:56.352Z,99399.31
2022-12-08T10:59:25.607Z,99401.75
2022-12-08T11:01:53.922Z,99313.19
2022-12-08T11:04:22.587Z,99351.28
2022-12-08T11:06:50.836Z,99386.53
2022-12-08T11:09:34.768Z,99393.63
2022-12-08T11:12:06.862Z,99391.06
2022-12-08T11:14:46.256Z,99334.22
2022-12-08T11:17:14.668Z,99357.97
2022-12-08T11:19:43.039Z,99327.31
2022-12-08T11:22:22.055Z,99393.22
2022-12-08T11:24:58.792Z,99392.47
2022-12-08T11:27:26.244Z,99389.94
2022-12-08T11:29:54.996Z,99390.88
2022-12-08T11:32:22.431Z,99386.63
2022-12-08T11:34:52.593Z,99387.44
2022-12-08T11:37:25.871Z,99385.09
2022-12-08T11:39:57.110Z,99322.19
2022-12-08T11:42:26.339Z,99387.34
2022-12-08T11:44:58.116Z,99378.34
2022-12-08T11:47:26.698Z,99374.56
2022-12-08T11:49:56.604Z,99375.19
2022-12-08T11:52:27.182Z,99374.97
2022-12-08T11:54:58.356Z,99376.81
2022-12-08T11:57:25.811Z,99375.28
2022-12-08T11:59:55.433Z,99373.28
2022-12-08T12:02:24.005Z,99370.66
2022-12-08T12:04:53.593Z,99328.53
2022-12-08T12:07:47.122Z,99377.63
2022-12-08T12:10:28.907Z,99377.63
2022-12-08T12:13:08.593Z,99372.34
2022-12-08T12:16:08.684Z,99372.34
2022-12-08T12:18:38.602Z,99372.44
2022-12-08T12:21:07.960Z,99378.59
2022-12-08T12:23:37.311Z,99344.41
2022-12-08T12:26:06.871Z,99377.63
2022-12-08T12:28:40.755Z,99374.97
2022-12-08T12:31:11.005Z,99374.97
2022-12-08T12:33:38.482Z,99374.16
2022-12-08T12:36:07.467Z,99374.97
2022-12-08T12:38:53.373Z,99369.69
2022-12-08T12:41:25.543Z,99377.53
2022-12-08T12:44:13.511Z,99310.19
2022-12-08T12:46:54.118Z,99373.09
2022-12-08T12:49:52.938Z,99371.41
2022-12-08T12:52:47.736Z,99379.25
2022-12-08T12:55:25.946Z,99378.38
2022-12-08T12:57:54.611Z,99358.78
2022-12-08T13:00:22.985Z,99379.25
2022-12-08T13:02:51.912Z,99372.75
2022-12-08T13:05:20.680Z,99380.47
2022-12-08T13:07:51.691Z,99374.25
2022-12-08T13:10:20.935Z,99365.19
2022-12-08T13:13:02.941Z,99377.63
2022-12-08T13:15:35.372Z,99383.88
2022-12-08T13:18:04.189Z,99377.72
2022-12-08T13:20:31.922Z,99383.88
2022-12-08T13:23:04.617Z,99360.75
2022-12-08T13:26:12.464Z,99373.19
2022-12-08T13:29:16.527Z,99368.84
2022-12-08T13:31:50.167Z,99371.50
2022-12-08T13:34:22.620Z,99368.00
2022-12-08T13:37:04.081Z,99336.59
2022-12-08T13:39:35.309Z,99373.09
2022-12-08T13:42:04.798Z,99372.13
2022-12-08T13:45:19.068Z,99353.56
2022-12-08T13:47:33.788Z,99352.06
2022-12-08T13:58:36.258Z,99378.28
2022-12-08T14:01:06.621Z,99371.59
2022-12-08T14:03:35.516Z,99295.66
2022-12-08T14:06:13.168Z,99373.34
2022-12-08T14:09:05.055Z,99370.59
2022-12-08T14:11:35.290Z,99377.56
2022-12-08T14:14:04.277Z,99386.16
2022-12-08T14:16:34.493Z,99385.22
2022-12-08T14:19:05.831Z,99384.56
2022-12-08T14:21:36.391Z,99384.66
2022-12-08T14:24:04.082Z,99381.19
2022-12-08T14:26:33.572Z,99385.63
2022-12-08T14:29:01.311Z,99344.97
2022-12-08T14:31:29.162Z,99355.47
2022-12-08T14:33:56.786Z,99381.50
2022-12-08T14:36:24.550Z,99389.44
2022-12-08T14:38:53.513Z,99385.16
2022-12-08T14:41:26.297Z,99380.72
2022-12-08T14:43:59.364Z,99358.00
2022-12-08T14:46:26.937Z,99379.03
2022-12-08T14:48:56.508Z,99389.63
2022-12-08T14:51:27.762Z,99393.22
2022-12-08T14:56:20.274Z,99369.56
2022-12-08T14:58:48.612Z,99396.91
2022-12-08T15:01:18.035Z,99403.06
2022-12-08T15:03:50.666Z,99367.53
2022-12-08T15:06:18.784Z,99401.25
2022-12-08T15:08:53.480Z,99398.59
2022-12-08T15:11:35.373Z,99366.06
2022-12-08T15:14:02.976Z,99400.53
2022-12-08T15:16:32.785Z,99378.44
2022-12-08T15:19:06.181Z,99357.13
2022-12-08T15:21:38.739Z,99376.00
2022-12-08T15:24:06.286Z,99399.78
2022-12-08T15:26:39.257Z,99390.84
2022-12-08T15:29:11.594Z,99367.94
2022-12-08T15:31:39.146Z,99407.81
2022-12-08T15:34:06.730Z,99408.69
2022-12-08T15:36:34.179Z,99409.50
2022-12-08T15:39:01.639Z,99414.81
2022-12-08T15:41:29.118Z,99406.34
2022-12-08T15:43:58.017Z,99406.03
2022-12-08T15:46:25.500Z,99412.25
2022-12-08T15:48:57.975Z,99410.56
2022-12-08T15:51:25.804Z,99415.88
2022-12-08T15:53:53.271Z,99416.72
2022-12-08T15:56:28.718Z,99418.41
2022-12-08T15:58:58.462Z,99419.38
2022-12-08T16:01:26.624Z,99388.03
2022-12-08T16:04:47.521Z,99421.16
2022-12-08T16:07:19.630Z,99421.16
2022-12-08T16:09:30.858Z,99418.59
2022-12-08T16:12:16.063Z,99424.88
2022-12-08T16:17:32.433Z,99402.44
2022-12-08T16:20:00.114Z,99439.13
2022-12-08T16:25:20.769Z,99401.00
2022-12-08T16:30:38.301Z,99430.75
2022-12-08T16:33:05.866Z,99425.66
2022-12-08T16:35:33.340Z,99422.16
2022-12-08T16:38:00.784Z,99432.84
2022-12-08T16:40:28.231Z,99437.38
2022-12-08T16:42:54.722Z,99434.00
2022-12-08T16:45:23.111Z,99390.22
2022-12-08T16:47:52.615Z,99417.66
2022-12-08T16:50:21.301Z,99437.78
2022-12-08T16:52:48.833Z,99438.81
2022-12-08T16:55:17.353Z,99404.94
2022-12-08T16:57:44.889Z,99407.69
2022-12-08T17:00:13.669Z,99443.34
2022-12-08T17:02:41.109Z,99440.91
2022-12-08T17:05:11.148Z,99443.56
2022-12-08T17:07:38.552Z,99443.84
2022-12-08T17:10:07.159Z,99437.72
2022-12-08T17:12:35.705Z,99399.59
2022-12-08T17:15:03.965Z,99436.00
2022-12-08T17:17:32.592Z,99430.06
2022-12-08T17:20:00.077Z,99435.56
2022-12-08T17:22:28.863Z,99435.66
2022-12-08T17:24:56.324Z,99446.25
2022-12-08T17:27:23.778Z,99441.06
2022-12-08T17:29:51.381Z,99437.53
2022-12-08T17:32:19.742Z,99440.28
2022-12-08T17:34:47.378Z,99444.63
2022-12-08T17:37:14.854Z,99438.50
2022-12-08T17:39:43.628Z,99441.25
2022-12-08T17:42:11.165Z,99433.97
2022-12-08T17:44:38.653Z,99443.13
2022-12-08T17:47:06.113Z,99444.91
2022-12-08T17:49:33.916Z,99447.75
2022-12-08T17:52:02.145Z,99442.56
2022-12-08T17:54:29.879Z,99448.81
2022-12-08T17:56:58.909Z,99452.41
2022-12-08T17:59:26.973Z,99421.41
2022-12-08T18:01:54.604Z,99458.72
2022-12-08T18:04:22.329Z,99428.41
2022-12-08T18:06:49.784Z,99465.91
2022-12-08T18:09:17.305Z,99465.16
2022-12-08T18:11:46.003Z,99458.16
2022-12-08T18:14:15.019Z,99455.63
2022-12-08T18:16:43.942Z,99454.00
2022-12-08T18:19:11.717Z,99420.41
2022-12-08T18:21:39.310Z,99451.91
2022-12-08T18:24:07.692Z,99457.59
2022-12-08T18:26:35.245Z,99437.97
2022-12-08T18:29:02.735Z,99456.72
2022-12-08T18:31:31.601Z,99432.97
2022-12-08T18:33:59.081Z,99456.81
2022-12-08T18:36:26.558Z,99458.66
2022-12-08T18:38:54.139Z,99435.97
2022-12-08T18:41:23.259Z,99457.97
2022-12-08T18:43:50.737Z,99462.50
2022-12-08T18:46:18.241Z,99464.22
2022-12-08T18:48:48.302Z,99437.84
2022-12-08T18:51:16.481Z,99468.94
2022-12-08T18:53:44.482Z,99436.06
2022-12-08T18:56:21.112Z,99458.94
2022-12-08T18:58:48.607Z,99456.38
2022-12-08T19:01:16.075Z,99452.88
2022-12-08T19:03:58.548Z,99458.16
2022-12-08T19:06:32.517Z,99439.53
2022-12-08T19:08:59.965Z,99458.16
2022-12-08T19:11:28.611Z,99438.91
2022-12-08T19:13:56.585Z,99467.97
2022-12-08T19:16:24.357Z,99459.34
2022-12-08T19:18:51.874Z,99472.53
2022-12-08T19:21:20.235Z,99466.38
2022-12-08T19:23:49.151Z,99472.53
2022-12-08T19:26:17.242Z,99471.66
2022-12-08T19:28:44.773Z,99469.03
2022-12-08T19:31:12.286Z,99469.13
2022-12-08T19:33:39.792Z,99475.25
2022-12-08T19:36:07.626Z,99484.13
2022-12-08T19:38:55.739Z,99485.06
2022-12-08T19:41:42.318Z,99477.22
2022-12-08T19:44:34.782Z,99476.47
2022-12-08T19:47:02.277Z,99467.03
2022-12-08T19:49:29.787Z,99422.03
2022-12-08T19:51:57.230Z,99470.53
2022-12-08T19:54:24.701Z,99477.31
2022-12-08T19:56:53.479Z,99476.47
2022-12-08T19:59:20.924Z,99447.16
2022-12-08T20:01:49.133Z,99472.91
2022-12-08T20:04:16.780Z,99433.00
2022-12-08T20:06:44.696Z,99469.47
2022-12-08T20:09:12.299Z,99474.88
2022-12-08T20:11:39.928Z,99454.72
2022-12-08T20:14:08.711Z,99476.84
2022-12-08T20:16:36.379Z,99450.66
2022-12-08T20:19:03.901Z,99484.91
2022-12-08T20:21:31.378Z,99478.75
2022-12-08T20:23:58.800Z,99474.34
2022-12-08T20:26:26.325Z,99459.22
2022-12-08T20:28:53.807Z,99481.28
2022-12-08T20:31:23.437Z,99453.28
2022-12-08T20:33:50.940Z,99479.63
2022-12-08T20:36:19.263Z,99445.06
2022-12-08T20:38:46.732Z,99450.94
2022-12-08T20:41:15.896Z,99479.09
2022-12-08T20:43:43.490Z,99481.72
2022-12-08T20:46:11.911Z,99454.72
2022-12-08T20:48:40.906Z,99493.22
2022-12-08T20:51:08.997Z,99493.22
2022-12-08T20:53:36.558Z,99489.66
2022-12-08T20:56:04.102Z,99498.50
2022-12-08T20:58:31.916Z,99497.69
2022-12-08T21:00:59.451Z,99499.56
2022-12-08T21:03:27.518Z,99501.25
2022-12-08T21:05:56.491Z,99502.09
2022-12-08T21:08:25.892Z,99503.06
2022-12-08T21:10:54.518Z,99464.78
2022-12-08T21:13:22.151Z,99495.31
2022-12-08T21:15:49.880Z,99500.59
2022-12-08T21:18:17.612Z,99494.53
2022-12-08T21:20:45.173Z,99497.19
2022-12-08T21:23:14.094Z,99506.06
2022-12-08T21:25:42.319Z,99484.88
2022-12-08T21:28:09.929Z,99511.34
2022-12-08T21:30:38.839Z,99509.66
2022-12-08T21:33:06.605Z,99507.84
2022-12-08T21:35:34.180Z,99508.78
2022-12-08T21:38:01.846Z,99491.88
2022-12-08T21:40:30.842Z,99502.75
2022-12-08T21:42:58.349Z,99499.34
2022-12-08T21:45:25.976Z,99494.16
2022-12-08T21:47:54.256Z,99467.28
2022-12-08T21:50:21.817Z,99485.50
2022-12-08T21:52:50.058Z,99505.66
2022-12-08T21:55:18.749Z,99496.03
2022-12-08T21:57:47.594Z,99505.66
2022-12-08T22:00:16.613Z,99470.69
2022-12-08T22:02:44.438Z,99509.16
2022-12-08T22:05:12.284Z,99486.00
2022-12-08T22:07:40.871Z,99491.38
2022-12-08T22:10:10.417Z,99510.19
2022-12-08T22:12:38.197Z,99512.06
2022-12-08T22:15:08.743Z,99508.56
2022-12-08T22:17:37.267Z,99495.25
2022-12-08T22:20:06.762Z,99519.22
2022-12-08T22:22:35.512Z,99516.59
2022-12-08T22:25:03.563Z,99485.78
2022-12-08T22:27:31.222Z,99502.44
2022-12-08T22:29:59.029Z,99495.44
2022-12-08T22:32:28.076Z,99491.13
2022-12-08T22:34:55.801Z,99490.16
2022-12-08T22:37:23.408Z,99487.59
2022-12-08T22:39:51.010Z,99492.06
2022-12-08T22:42:19.054Z,99487.69
2022-12-08T22:44:46.752Z,99491.13
2022-12-08T22:47:14.361Z,99491.28
2022-12-08T22:49:43.451Z,99493.84
2022-12-08T22:52:11.271Z,99490.53
2022-12-08T22:54:39.101Z,99487.88
2022-12-08T22:57:06.721Z,99489.69
2022-12-08T22:59:34.599Z,99491.47
2022-12-08T23:02:02.134Z,99489.78
2022-12-08T23:04:29.656Z,99491.47
2022-12-08T23:06:58.499Z,99487.13
2022-12-08T23:09:25.937Z,99512.59
2022-12-08T23:11:53.575Z,99487.97
2022-12-08T23:14:21.036Z,99483.72
2022-12-08T23:16:48.761Z,99486.38
2022-12-08T23:19:16.245Z,99488.91
2022-12-08T23:21:44.178Z,99496.06
2022-12-08T23:24:12.942Z,99484.78
2022-12-08T23:26:40.617Z,99487.31
2022-12-08T23:29:08.059Z,99482.13
2022-12-08T23:31:35.652Z,99487.31
2022-12-08T23:34:03.460Z,99483.81
2022-12-08T23:36:31.550Z,99489.97
2022-12-08T23:38:59.204Z,99481.09
2022-12-08T23:41:28.076Z,99482.03
2022-12-08T23:43:55.581Z,99483.72
2022-12-08T23:46:23.532Z,99445.19
2022-12-08T23:48:51.391Z,99474.94
2022-12-08T23:51:19.077Z,99473.16
2022-12-08T23:53:46.833Z,99479.41
2022-12-08T23:56:15.139Z,99455.38
2022-12-08T23:58:44.151Z,99476.94
